Time;durP1;ratioP1;P1;durP2;ratioP2;P2;SDS_P1;SDS_P2;PMS_P1;PMS_P2;Temp;Humidity;BMP_temperature;BMP_pressure;BME280_temperature;BME280_humidity;BME280_pressure;Samples;Min_cycle;Max_cycle;Signal;HPM_P1;HPM_P2
2022/01/11 00:09:42;;;;;;;3.50;1.27;;;;;;;;;;20844330;28;20249;-77
2022/01/11 00:19:47;;;;;;;1.70;1.30;;;;;;;;;;20843772;28;20222;-77
2022/01/11 00:29:52;;;;;;;1.60;1.10;;;;;;;;;;20834641;28;20268;-78
2022/01/11 00:40:00;;;;;;;2.63;1.70;;;;;;;;;;20816914;28;20230;-77
2022/01/11 00:50:03;;;;;;;2.07;0.90;;;2.30;99.90;;;;;;20816080;28;20230;-79
2022/01/11 01:00:08;;;;;;;3.10;1.43;;;2.40;99.90;;;;;;20832481;28;20276;-78
2022/01/11 01:10:26;;;;;;;2.53;1.33;;;2.50;99.90;;;;;;20854033;28;20287;-77
2022/01/11 01:20:28;;;;;;;1.83;0.90;;;;;;;;;;20777849;28;20711;-78
2022/01/11 01:30:30;;;;;;;1.93;1.07;;;;;;;;;;20830095;28;20214;-78
2022/01/11 01:40:38;;;;;;;2.10;1.23;;;;;;;;;;20828458;28;20644;-78
2022/01/11 01:50:40;;;;;;;1.77;1.30;;;;;;;;;;20846036;28;20253;-78
2022/01/11 02:00:46;;;;;;;3.47;1.67;;;2.40;99.90;;;;;;20815416;28;20234;-78
2022/01/11 02:10:48;;;;;;;2.60;1.43;;;2.30;99.90;;;;;;20810079;28;20264;-80
2022/01/11 02:20:51;;;;;;;2.47;1.37;;;2.20;99.90;;;;;;20809867;28;20234;-79
2022/01/11 02:31:03;;;;;;;1.80;1.13;;;;;;;;;;20848285;28;20214;-78
2022/01/11 02:41:06;;;;;;;1.50;1.10;;;;;;;;;;20808293;28;20300;-80
2022/01/11 02:51:09;;;;;;;2.00;1.20;;;;;;;;;;20808518;28;20738;-78
2022/01/11 03:01:12;;;;;;;3.07;1.33;;;;;;;;;;20837004;28;20218;-78
2022/01/11 03:11:16;;;;;;;2.30;1.13;;;2.30;99.90;;;;;;20807446;28;20218;-79
2022/01/11 03:21:21;;;;;;;2.47;1.70;;;;;;;;;;20823770;28;20230;-78
2022/01/11 03:31:23;;;;;;;1.37;0.90;;;;;;;;;;20822203;28;20776;-79
2022/01/11 03:41:26;;;;;;;2.20;1.37;;;;;;;;;;20821809;28;20218;-78
2022/01/11 03:51:28;;;;;;;0.93;0.87;;;;;;;;;;20826217;28;20222;-77
2022/01/11 04:01:31;;;;;;;1.87;1.57;;;;;;;;;;20822354;28;20281;-79
2022/01/11 04:11:34;;;;;;;3.27;1.50;;;;;;;;;;20836300;28;20758;-78
2022/01/11 04:21:36;;;;;;;1.77;1.27;;;;;;;;;;20835378;28;20207;-77
2022/01/11 04:31:38;;;;;;;2.60;1.20;;;;;;;;;;20833653;28;20253;-77
2022/01/11 04:41:45;;;;;;;2.23;1.30;;;;;;;;;;20838093;28;20253;-78
2022/01/11 04:51:47;;;;;;;4.07;1.87;;;2.80;99.90;;;;;;20834444;28;20245;-78
2022/01/11 05:01:49;;;;;;;1.90;1.30;;;;;;;;;;20815191;28;20230;-77
2022/01/11 05:11:52;;;;;;;3.17;0.93;;;;;;;;;;20815015;28;20223;-78
2022/01/11 05:21:54;;;;;;;5.30;1.33;;;;;;;;;;20829538;28;20230;-79
2022/01/11 05:31:58;;;;;;;4.40;1.63;;;;;;;;;;20812744;28;20195;-79
2022/01/11 05:42:00;;;;;;;1.83;1.43;;;;;;;;;;20827045;28;20257;-78
2022/01/11 05:52:03;;;;;;;2.53;0.93;;;;;;;;;;20827276;28;20257;-79
2022/01/11 06:02:04;;;;;;;3.53;1.50;;;;;;;;;;20810815;28;20320;-80
2022/01/11 06:12:07;;;;;;;2.40;1.53;;;;;;;;;;20819303;28;20264;-78
2022/01/11 06:22:09;;;;;;;2.50;1.60;;;;;;;;;;20805865;28;20227;-80
2022/01/11 06:32:11;;;;;;;1.63;1.07;;;;;;;;;;20808267;28;20703;-78
2022/01/11 06:42:13;;;;;;;2.10;1.23;;;;;;;;;;20830290;28;20280;-78
2022/01/11 06:52:17;;;;;;;2.60;1.30;;;;;;;;;;20823618;28;20692;-79
2022/01/11 07:02:24;;;;;;;3.07;1.63;;;;;;;;;;20832055;28;20246;-78
2022/01/11 07:12:44;;;;;;;13.27;8.37;;;;;;;;;;20810395;28;20195;-78
2022/01/11 07:22:47;;;;;;;2.23;1.57;;;;;;;;;;20795065;28;20297;-79
2022/01/11 07:32:49;;;;;;;1.57;1.17;;;;;;;;;;20759025;28;20293;-78
2022/01/11 07:42:52;;;;;;;1.50;1.30;;;;;;;;;;20745069;28;20219;-80
2022/01/11 07:53:13;;;;;;;2.17;1.10;;;;;;;;;;20724995;28;20215;-80
2022/01/11 08:03:22;;;;;;;1.73;1.13;;;;;;;;;;20764394;28;20222;-79
2022/01/11 08:13:42;;;;;;;1.67;1.27;;;;;;;;;;20814709;28;20584;-79
2022/01/11 08:23:45;;;;;;;4.33;2.40;;;;;;;;;;20819519;28;20234;-79
2022/01/11 08:33:47;;;;;;;2.00;1.37;;;;;;;;;;20833607;28;20223;-78
2022/01/11 08:43:50;;;;;;;2.27;1.27;;;;;;;;;;20810985;28;20655;-78
2022/01/11 08:53:54;;;;;;;3.50;2.37;;;;;;;;;;20799955;28;20226;-78
2022/01/11 09:03:56;;;;;;;3.87;2.30;;;;;;;;;;20815109;28;20308;-80
2022/01/11 09:13:58;;;;;;;4.43;1.60;;;;;;;;;;20813828;28;20581;-81
2022/01/11 09:24:02;;;;;;;2.57;1.70;;;;;;;;;;20827678;28;20304;-81
2022/01/11 09:49:02;;;;;;;2.20;1.30;;;2.80;99.90;;;;;;20981665;28;20571;-65
2022/01/11 09:59:06;;;;;;;3.20;2.37;;;2.70;99.90;;;;;;20861634;28;20213;-65
2022/01/11 10:09:29;;;;;;;1.83;1.30;;;2.90;99.90;;;;;;20901214;28;20579;-65
2022/01/11 10:19:33;;;;;;;2.37;1.73;;;;;;;;;;20915415;28;20219;-66
2022/01/11 10:29:44;;;;;;;2.37;1.83;;;3.00;99.90;;;;;;20912918;28;20631;-66
2022/01/11 10:39:51;;;;;;;1.90;1.47;;;;;;;;;;20973111;28;20254;-66
2022/01/11 10:49:55;;;;;;;5.53;1.60;;;3.10;99.90;;;;;;20922668;28;20222;-66
2022/01/11 11:00:22;;;;;;;3.93;2.10;;;3.10;99.90;;;;;;20838284;28;20241;-66
2022/01/11 11:10:30;;;;;;;2.63;1.77;;;3.20;99.90;;;;;;20827396;28;20287;-66
2022/01/11 11:20:33;;;;;;;2.67;2.03;;;;;;;;;;20776078;28;20214;-67
2022/01/11 11:30:35;;;;;;;3.40;2.20;;;;;;;;;;20805100;28;20280;-67
2022/01/11 11:40:37;;;;;;;2.53;1.23;;;;;;;;;;20821300;28;20225;-67
2022/01/11 11:51:04;;;;;;;1.77;1.30;;;3.40;99.90;;;;;;20879723;28;20287;-67
2022/01/11 12:01:06;;;;;;;2.87;2.03;;;;;;;;;;20823126;28;20630;-66
2022/01/11 12:11:10;;;;;;;2.00;1.40;;;3.80;99.90;;;;;;20877096;28;20279;-66
2022/01/11 12:21:12;;;;;;;2.13;1.43;;;;;;;;;;20859289;28;20252;-66
2022/01/11 12:31:25;;;;;;;3.17;2.23;;;3.80;99.90;;;;;;20850728;28;20295;-66
2022/01/11 12:41:29;;;;;;;6.27;1.90;;;;;;;;;;20862447;28;20230;-67
2022/01/11 12:51:42;;;;;;;3.30;2.13;;;3.90;99.90;;;;;;20808484;28;20230;-66
2022/01/11 13:01:44;;;;;;;5.33;2.10;;;;;;;;;;20773269;28;20312;-66
2022/01/11 13:11:54;;;;;;;2.97;2.23;;;;;;;;;;20807071;28;20285;-66
2022/01/11 13:22:06;;;;;;;2.47;1.70;;;;;;;;;;20798508;28;20207;-66
2022/01/11 13:32:10;;;;;;;2.40;2.00;;;3.40;99.90;;;;;;20797620;28;20257;-68
2022/01/11 13:42:12;;;;;;;4.20;1.57;;;;;;;;;;20813368;28;20234;-68
2022/01/11 13:52:18;;;;;;;5.30;2.13;;;4.20;99.90;;;;;;20808000;28;20258;-68
2022/01/11 14:02:21;;;;;;;5.63;2.60;;;;;;;;;;20865947;28;20229;-68
2022/01/11 14:12:27;;;;;;;2.43;1.47;;;;;;;;;;20881775;28;20237;-68
2022/01/11 14:22:44;;;;;;;4.67;2.73;;;;;;;;;;20808987;28;20276;-67
2022/01/11 14:32:54;;;;;;;3.20;1.57;;;4.10;99.90;;;;;;20803548;28;20226;-67
2022/01/11 14:43:18;;;;;;;2.10;1.57;;;4.00;99.90;;;;;;20812372;28;20234;-67
2022/01/11 14:53:32;;;;;;;3.43;1.87;;;4.00;99.90;;;;;;20788197;28;20239;-67
2022/01/11 15:03:38;;;;;;;4.40;2.47;;;;;;;;;;20825591;28;20276;-67
2022/01/11 15:13:43;;;;;;;3.43;1.60;;;4.10;99.90;;;;;;20798084;28;20791;-67
2022/01/11 15:23:45;;;;;;;2.33;1.67;;;;;;;;;;20821535;28;20268;-66
2022/01/11 15:33:48;;;;;;;3.00;1.70;;;3.70;99.90;;;;;;20830944;28;20231;-67
2022/01/11 15:43:54;;;;;;;4.23;1.83;;;3.80;99.90;;;;;;20808813;28;20284;-67
2022/01/11 15:53:57;;;;;;;2.10;1.37;;;;;;;;;;20791403;22;20235;-79
2022/01/11 16:03:59;;;;;;;2.27;1.67;;;;;;;;;;20728565;28;20252;-79
2022/01/11 16:14:03;;;;;;;3.93;2.13;;;;;;;;;;20747845;28;20638;-79
2022/01/11 16:24:06;;;;;;;3.50;1.90;;;;;;;;;;20748474;28;20219;-78
2022/01/11 16:34:08;;;;;;;3.20;2.17;;;;;;;;;;20747144;28;20231;-79
2022/01/11 16:44:10;;;;;;;3.27;1.93;;;;;;;;;;20731693;28;20250;-79
2022/01/11 16:54:13;;;;;;;3.67;2.03;;;;;;;;;;20746247;28;20285;-79
2022/01/11 17:04:16;;;;;;;6.63;2.77;;;;;;;;;;20758038;28;20237;-79
2022/01/11 17:14:18;;;;;;;3.33;2.13;;;;;;;;;;20733376;28;20257;-80
2022/01/11 17:24:19;;;;;;;3.30;2.00;;;;;;;;;;20742515;28;20285;-78
2022/01/11 17:34:21;;;;;;;3.17;2.33;;;;;;;;;;20714244;28;20712;-79
2022/01/11 17:44:23;;;;;;;3.07;2.00;;;;;;;;;;20739263;28;20227;-79
2022/01/11 17:54:27;;;;;;;2.50;1.60;;;;;;;;;;20723667;28;20231;-79
2022/01/11 18:04:29;;;;;;;2.97;1.90;;;;;;;;;;20730082;28;20265;-78
2022/01/11 18:14:31;;;;;;;4.20;2.83;;;;;;;;;;20758794;28;20269;-79
2022/01/11 18:24:33;;;;;;;3.33;2.37;;;;;;;;;;20739432;28;20712;-80
2022/01/11 18:34:35;;;;;;;4.43;2.33;;;;;;;;;;20756102;28;20262;-79
2022/01/11 18:44:39;;;;;;;7.43;2.67;;;3.80;99.90;;;;;;20755354;28;20216;-80
2022/01/11 18:54:41;;;;;;;5.60;2.33;;;;;;;;;;20752268;28;20565;-80
2022/01/11 19:04:44;;;;;;;1.23;0.97;;;;;;;;;;20752455;28;20227;-78
2022/01/11 19:14:48;;;;;;;1.37;0.80;;;;;;;;;;20752791;28;20232;-80
2022/01/11 19:24:56;;;;;;;1.63;0.97;;;;;;;;;;20775718;28;20228;-80
2022/01/11 19:34:58;;;;;;;1.43;1.03;;;3.80;99.90;;;;;;20752907;28;20639;-82
2022/01/11 19:45:03;;;;;;;1.70;1.00;;;3.90;99.90;;;;;;20748442;28;20250;-80
2022/01/11 19:55:06;;;;;;;3.77;1.27;;;;;;;;;;20713295;28;20626;-79
2022/01/11 20:05:10;;;;;;;2.03;1.00;;;;;;;;;;20731229;28;20293;-78
2022/01/11 20:15:12;;;;;;;2.37;1.20;;;;;;;;;;20748037;28;20655;-79
2022/01/11 20:46:23;;;;;;;1.70;1.00;;;;;;;;;;21145284;27;20595;-64
2022/01/11 20:56:27;;;;;;;3.23;1.50;;;;;;;;;;21126380;28;20269;-65
2022/01/11 21:06:29;;;;;;;1.53;1.20;;;;;;;;;;21108283;28;20204;-65
2022/01/11 21:17:00;;;;;;;1.03;0.90;;;3.80;99.90;;;;;;21044660;28;20208;-65
2022/01/11 21:27:03;;;;;;;2.27;1.33;;;3.90;99.90;;;;;;21156916;28;20231;-65
2022/01/11 21:37:05;;;;;;;1.87;1.30;;;;;;;;;;21107712;28;20686;-65
2022/01/11 21:47:09;;;;;;;1.63;1.17;;;3.70;99.90;;;;;;21176061;28;20215;-65
2022/01/11 21:57:11;;;;;;;0.80;0.57;;;;;;;;;;21003628;22;20582;-70
2022/01/11 22:07:13;;;;;;;1.27;1.00;;;;;;;;;;20828138;28;20223;-70
2022/01/11 22:27:26;;;;;;;3.77;2.57;;;;;;;;;;20860657;28;20271;-70
2022/01/11 22:37:29;;;;;;;1.43;0.97;;;;;;;;;;20799262;28;20697;-70
2022/01/11 22:47:31;;;;;;;1.37;0.73;;;;;;;;;;20798317;28;20210;-70
2022/01/11 22:57:33;;;;;;;1.77;1.17;;;;;;;;;;20797534;28;20230;-70
2022/01/11 23:07:41;;;;;;;1.33;0.80;;;;;;;;;;20827664;28;20234;-70
2022/01/11 23:17:43;;;;;;;1.70;1.07;;;;;;;;;;20812770;28;20292;-70
2022/01/11 23:27:47;;;;;;;2.27;1.13;;;3.40;99.90;;;;;;20827366;28;20766;-70
2022/01/11 23:37:54;;;;;;;1.30;0.80;;;;;;;;;;20794375;28;20265;-70
2022/01/11 23:47:56;;;;;;;1.13;0.90;;;;;;;;;;20853596;28;20229;-70
2022/01/11 23:57:58;;;;;;;1.23;0.73;;;;;;;;;;20875151;28;20559;-70
